TimeEST,TemperatureF,Dew PointF,Humidity,Sea Level PressureIn,VisibilityMPH,Wind Direction,Wind SpeedMPH,Gust SpeedMPH,PrecipitationIn,Events,Conditions,WindDirDegrees,DateUTC
12:53 AM,64.0,48.0,56,29.83,10.0,SSE,6.9,-,N/A,,Overcast,160,2014-03-03 05:53:00
1:53 AM,63.0,48.9,60,29.81,7.0,South,11.5,-,0.00,Rain,Light Rain,170,2014-03-03 06:53:00
2:53 AM,60.1,51.1,72,29.78,9.0,SW,4.6,-,0.00,Rain,Light Rain,230,2014-03-03 07:53:00
3:33 AM,59.0,52.0,78,29.79,10.0,NNW,5.8,-,0.00,,Overcast,330,2014-03-03 08:33:00
3:53 AM,55.0,52.0,89,29.79,10.0,North,10.4,-,0.00,,Overcast,10,2014-03-03 08:53:00
3:59 AM,54.0,51.1,90,29.91,2.5,West,39.1,49.5,0.00,Rain,Rain,280,2014-03-03 08:59:00
4:11 AM,48.9,45.0,86,29.86,4.0,WNW,11.5,38.0,0.08,Rain,Rain,300,2014-03-03 09:11:00
4:53 AM,48.0,45.0,89,29.84,8.0,Calm,Calm,-,0.13,Rain,Light Rain,0,2014-03-03 09:53:00
5:45 AM,46.0,43.0,89,29.86,5.0,North,10.4,-,0.10,Rain,Rain,350,2014-03-03 10:45:00
5:53 AM,46.0,43.0,89,29.85,5.0,North,10.4,-,0.12,Rain,Rain,360,2014-03-03 10:53:00
6:12 AM,46.0,44.1,93,29.87,6.0,North,10.4,-,0.03,Rain,Light Rain,350,2014-03-03 11:12:00
6:45 AM,45.0,44.1,97,29.86,6.0,North,10.4,-,0.04,,Overcast,10,2014-03-03 11:45:00
6:53 AM,45.0,44.1,97,29.86,6.0,North,11.5,-,0.04,Rain,Light Rain,10,2014-03-03 11:53:00
7:23 AM,44.1,44.1,100,29.88,2.0,North,12.7,-,0.02,Rain,Light Rain,350,2014-03-03 12:23:00
7:53 AM,43.0,41.0,93,29.90,2.0,North,12.7,-,0.02,Rain,Light Rain,10,2014-03-03 12:53:00
8:15 AM,43.0,39.9,89,29.92,4.0,North,16.1,-,0.00,Rain,Light Rain,350,2014-03-03 13:15:00
8:53 AM,41.0,37.9,89,29.93,7.0,North,12.7,-,0.00,,Overcast,360,2014-03-03 13:53:00
8:55 AM,41.0,37.9,89,29.94,10.0,North,10.4,-,N/A,,Overcast,360,2014-03-03 13:55:00
8:59 AM,41.0,37.9,89,29.94,10.0,North,13.8,19.6,N/A,,Overcast,350,2014-03-03 13:59:00
9:23 AM,39.9,37.9,93,29.96,2.0,North,13.8,-,0.00,Rain,Light Rain,350,2014-03-03 14:23:00
9:53 AM,39.9,37.9,93,29.98,2.5,NNW,12.7,-,0.01,Rain,Light Rain,340,2014-03-03 14:53:00
10:00 AM,39.9,-9999,N/A,29.98,2.5,NNW,10.4,-,0.00,Rain,Light Rain,340,2014-03-03 15:00:00
10:03 AM,39.9,37.0,89,29.98,2.5,NNW,11.5,-,0.00,Rain,Light Rain,340,2014-03-03 15:03:00
10:53 AM,39.0,37.0,93,30.01,2.5,North,18.4,25.3,0.00,Rain,Light Rain,350,2014-03-03 15:53:00
11:28 AM,39.0,37.0,93,30.04,7.0,NNW,15.0,-,0.00,,Light Drizzle,330,2014-03-03 16:28:00
11:50 AM,39.2,37.4,93,30.06,10.0,NNW,13.8,-,0.00,,Light Drizzle,340,2014-03-03 16:50:00
11:53 AM,35.1,33.1,92,30.06,10.0,NNW,13.8,-,0.00,,Light Drizzle,340,2014-03-03 16:53:00
12:50 PM,33.8,30.2,87,30.07,7.0,NNW,12.7,-,0.00,,Light Drizzle,340,2014-03-03 17:50:00
12:53 PM,34.0,30.9,89,30.07,7.0,NNW,13.8,-,0.00,,Light Drizzle,330,2014-03-03 17:53:00
1:53 PM,35.1,30.9,85,30.08,7.0,North,12.7,-,0.00,,Overcast,350,2014-03-03 18:53:00
2:53 PM,37.0,30.0,76,30.09,10.0,North,17.3,-,N/A,,Overcast,350,2014-03-03 19:53:00
3:53 PM,35.1,28.0,76,30.10,10.0,NNW,17.3,-,N/A,,Overcast,330,2014-03-03 20:53:00
4:53 PM,33.1,26.1,75,30.15,10.0,NNW,19.6,25.3,N/A,,Overcast,340,2014-03-03 21:53:00
5:53 PM,30.9,23.0,72,30.19,10.0,NNW,17.3,-,N/A,,Mostly Cloudy,340,2014-03-03 22:53:00
6:53 PM,30.0,21.9,72,30.21,10.0,NNW,17.3,-,N/A,,Mostly Cloudy,340,2014-03-03 23:53:00
7:53 PM,30.0,21.9,72,30.21,10.0,North,18.4,-,N/A,,Overcast,360,2014-03-04 00:53:00
8:53 PM,30.0,21.9,72,30.24,10.0,North,15.0,-,N/A,,Overcast,350,2014-03-04 01:53:00
9:53 PM,30.0,21.9,72,30.22,10.0,North,12.7,-,N/A,,Overcast,360,2014-03-04 02:53:00
10:53 PM,30.0,21.9,72,30.25,10.0,North,17.3,-,N/A,,Overcast,10,2014-03-04 03:53:00
11:53 PM,30.0,23.0,75,30.25,10.0,NNE,10.4,-,N/A,,Overcast,20,2014-03-04 04:53:00